Hovedside
METAR-TAF:

METAR-TAF

Lufthavner :

Toliara, Madagaskar

breddegrad: 23-23S, lengdegrad: 043-44E, høyde over havet: 8 m

METAR: fraværende

Tid: 18:17 (15:17 UTC)

Varsel

Denne rapporten ble laget for 4 timer og 17 minutter siden, klokken 11:00 UTC
Varsel gyldig fra 30. klokken 12 UTC til 01. klokken 12 UTC
Vind 12 kt fra Vest
Sikt 10 km eller mer
Få skyer i en høyde av 2300 ft
Blir
fra 30. klokken 17 UTC til 30. klokken 19 UTC
Vind 2 kt fra skiftende retning
Blir
fra 01. klokken 07 UTC til 01. klokken 09 UTC
Vind 12 kt fra Vest-sørvest

TAF: FMST 301100Z 3012/0112 26012KT 9999 FEW023 BECMG 3017/3019 VRB02KT BECMG 0107/0109 24012KT

Værobservasjoner og værvarsel for over 4000 flyplasser (METAR- og TAF-rapporter).

Tilgjengelige stasjoner er representert av de røde og gule prikkene på kartet.

Hold musepekeren over prikken for å se navnet på stasjonen.

Klikk så for å se værobservasjoner og -varsler.

For å forandre kartet kan du klikke på den grønne knappen med svart kryss for å zoome inn, på den grønne knappen med strek for å zoome ut, eller på de grønne pilene for å se tilstøtende kart.


METAR-TAF: